Weather at Montreal / Marina Venise

Public forecast

Using degrees Celsius for public forecast. Weather courtesy of forecast.io.

Closest aviation weather report (METAR) to Montreal / Marina Venise

Closest report is Montreal / Pierre Elliott Trudeau International Airport, 10.0 nm (18.5 km) S.

2024/05/22 09:00 (retrieved 28 minutes ago)

CYUL 220900Z 00000KT 6SM BR MIFG FEW010 SCT025 18/17 A2983 RMK SF2CF2 MIFG W NW SLP102 DENSITY ALT 600FT

Closest aviation forecast (TAF) to Montreal / Marina Venise

Closest forecast is Montreal / Pierre Elliott Trudeau International Airport, 10.0 nm (18.5 km) S.

2024/05/22 09:45 (retrieved 0 seconds ago)

TAF CYUL 220840Z 2209/2306 VRB03KT P6SM SCT010 SCT030 TEMPO 2209/2214 4SM BR BKN010 BKN030 FM221400 22005KT P6SM BKN020 BECMG 2214/2216 SKC BECMG 2219/2221 BKN060 FM222200 25007KT P6SM -SHRA BKN040 PROB30 2222/2301 VRB15G30KT 2SM TSRA BR BKN020 OVC050CB FM230100 17008KT 4SM -SHRA BKN030 PROB30 2301/2304 VRB20G35KT 1SM +TSRA BKN020 OVC040CB FM230400 24012G22KT P6SM BKN050 PROB30 2304/2306 4SM TSRA BR BKN030CB RMK NXT FCST BY 221200Z